Hale Center, Texas
Current Conditions -  °F | °C
As of 6:35 PM on Wednesday 17 Dec 2014 (Local Time) from KPVW Reporting Station
Clear Clear  
Wind Chill: 36°   Ceiling: Unl
Heat Index: 41°   Visibility: 10mi
Dew Point: 35°   Wind: 8mph
Humidity: 78%   Direction: 120°ESE
Pressure: 29.96"   Gusts: NA
Location:  34.06°N, 101.84°W
Report Text: KPVW 180035Z AUTO 12007KT 10SM CLR 05/01 A2996 RMK AO2 T00490014
Loading
Personal Weather Stations






























Interactive Weather Map New forecast layout! Learn more

10-Day Weather Forecast

Advertisements
Track Severe Weather on mobile